sensor_id;sensor_type;location;lat;lon;timestamp;pressure;altitude;pressure_sealevel;temperature;humidity
48563;BME280;34981;49.104;11.396;2023-04-04T00:01:57;96216.25;;;-1.19;100.00
48563;BME280;34981;49.104;11.396;2023-04-04T00:04:26;96213.41;;;-1.17;100.00
48563;BME280;34981;49.104;11.396;2023-04-04T00:06:53;96193.81;;;-1.29;100.00
48563;BME280;34981;49.104;11.396;2023-04-04T00:09:21;96198.72;;;-1.26;100.00
48563;BME280;34981;49.104;11.396;2023-04-04T00:11:48;96194.25;;;-1.26;100.00
48563;BME280;34981;49.104;11.396;2023-04-04T00:14:16;96189.41;;;-1.22;100.00
48563;BME280;34981;49.104;11.396;2023-04-04T00:16:43;96205.06;;;-1.21;100.00
48563;BME280;34981;49.104;11.396;2023-04-04T00:19:10;96201.22;;;-1.18;100.00
48563;BME280;34981;49.104;11.396;2023-04-04T00:21:43;96184.09;;;-1.29;100.00
48563;BME280;34981;49.104;11.396;2023-04-04T00:24:13;96190.22;;;-1.22;100.00
48563;BME280;34981;49.104;11.396;2023-04-04T00:26:40;96188.78;;;-1.24;100.00
48563;BME280;34981;49.104;11.396;2023-04-04T00:29:08;96197.59;;;-1.17;100.00
48563;BME280;34981;49.104;11.396;2023-04-04T00:31:35;96192.69;;;-1.20;100.00
48563;BME280;34981;49.104;11.396;2023-04-04T00:34:02;96189.81;;;-1.25;100.00
48563;BME280;34981;49.104;11.396;2023-04-04T00:36:29;96186.97;;;-1.24;100.00
48563;BME280;34981;49.104;11.396;2023-04-04T00:38:56;96191.22;;;-1.23;100.00
48563;BME280;34981;49.104;11.396;2023-04-04T00:41:24;96198.38;;;-1.17;100.00
48563;BME280;34981;49.104;11.396;2023-04-04T00:43:51;96197.59;;;-1.17;100.00
48563;BME280;34981;49.104;11.396;2023-04-04T00:46:18;96184.03;;;-1.35;100.00
48563;BME280;34981;49.104;11.396;2023-04-04T00:48:46;96189.00;;;-1.26;100.00
48563;BME280;34981;49.104;11.396;2023-04-04T00:51:13;96183.25;;;-1.29;100.00
48563;BME280;34981;49.104;11.396;2023-04-04T00:53:42;96178.31;;;-1.39;100.00
48563;BME280;34981;49.104;11.396;2023-04-04T00:56:10;96169.41;;;-1.38;100.00
48563;BME280;34981;49.104;11.396;2023-04-04T00:58:38;96186.72;;;-1.29;100.00
48563;BME280;34981;49.104;11.396;2023-04-04T01:01:05;96167.69;;;-1.45;100.00
48563;BME280;34981;49.104;11.396;2023-04-04T01:03:33;96177.13;;;-1.36;100.00
48563;BME280;34981;49.104;11.396;2023-04-04T01:06:01;96175.25;;;-1.42;100.00
48563;BME280;34981;49.104;11.396;2023-04-04T01:08:29;96169.72;;;-1.47;100.00
48563;BME280;34981;49.104;11.396;2023-04-04T01:10:56;96179.13;;;-1.38;100.00
48563;BME280;34981;49.104;11.396;2023-04-04T01:13:23;96176.00;;;-1.48;100.00
48563;BME280;34981;49.104;11.396;2023-04-04T01:15:51;96188.56;;;-1.50;100.00
48563;BME280;34981;49.104;11.396;2023-04-04T01:18:19;96182.53;;;-1.66;100.00
48563;BME280;34981;49.104;11.396;2023-04-04T01:20:51;96170.47;;;-1.75;100.00
48563;BME280;34981;49.104;11.396;2023-04-04T01:23:20;96195.56;;;-1.36;100.00
48563;BME280;34981;49.104;11.396;2023-04-04T01:25:49;96169.09;;;-1.71;100.00
48563;BME280;34981;49.104;11.396;2023-04-04T01:28:16;96186.22;;;-1.60;100.00
48563;BME280;34981;49.104;11.396;2023-04-04T01:30:43;96177.88;;;-1.85;100.00
48563;BME280;34981;49.104;11.396;2023-04-04T01:33:13;96180.28;;;-1.90;100.00
48563;BME280;34981;49.104;11.396;2023-04-04T01:35:42;96170.22;;;-2.01;100.00
48563;BME280;34981;49.104;11.396;2023-04-04T01:38:14;96186.44;;;-1.83;100.00
48563;BME280;34981;49.104;11.396;2023-04-04T01:40:47;96193.81;;;-1.72;100.00
48563;BME280;34981;49.104;11.396;2023-04-04T01:43:15;96185.59;;;-1.83;100.00
48563;BME280;34981;49.104;11.396;2023-04-04T01:45:44;96183.09;;;-1.91;100.00
48563;BME280;34981;49.104;11.396;2023-04-04T01:48:13;96186.66;;;-1.78;100.00
48563;BME280;34981;49.104;11.396;2023-04-04T01:50:45;96198.06;;;-1.92;100.00
48563;BME280;34981;49.104;11.396;2023-04-04T01:53:12;96174.44;;;-2.21;100.00
48563;BME280;34981;49.104;11.396;2023-04-04T01:55:39;96177.44;;;-2.24;100.00
48563;BME280;34981;49.104;11.396;2023-04-04T01:58:07;96169.63;;;-2.32;100.00
48563;BME280;34981;49.104;11.396;2023-04-04T02:00:34;96163.78;;;-2.64;100.00
48563;BME280;34981;49.104;11.396;2023-04-04T02:03:02;96169.66;;;-2.62;100.00
48563;BME280;34981;49.104;11.396;2023-04-04T02:05:29;96173.28;;;-2.63;100.00
48563;BME280;34981;49.104;11.396;2023-04-04T02:07:57;96183.13;;;-2.57;100.00
48563;BME280;34981;49.104;11.396;2023-04-04T02:10:34;96181.63;;;-2.45;100.00
48563;BME280;34981;49.104;11.396;2023-04-04T02:13:01;96186.66;;;-2.50;100.00
48563;BME280;34981;49.104;11.396;2023-04-04T02:15:30;96185.38;;;-2.68;100.00
48563;BME280;34981;49.104;11.396;2023-04-04T02:17:57;96184.19;;;-2.66;100.00
48563;BME280;34981;49.104;11.396;2023-04-04T02:20:27;96201.44;;;-2.49;100.00
48563;BME280;34981;49.104;11.396;2023-04-04T02:22:55;96206.22;;;-2.38;100.00
48563;BME280;34981;49.104;11.396;2023-04-04T02:25:23;96209.59;;;-2.44;100.00
48563;BME280;34981;49.104;11.396;2023-04-04T02:27:51;96206.41;;;-2.54;100.00
48563;BME280;34981;49.104;11.396;2023-04-04T02:30:18;96217.41;;;-2.36;100.00
48563;BME280;34981;49.104;11.396;2023-04-04T02:32:46;96201.25;;;-2.62;100.00
48563;BME280;34981;49.104;11.396;2023-04-04T02:35:16;96202.78;;;-2.67;100.00
48563;BME280;34981;49.104;11.396;2023-04-04T02:37:44;96216.03;;;-2.46;100.00
48563;BME280;34981;49.104;11.396;2023-04-04T02:40:19;96209.22;;;-2.70;100.00
48563;BME280;34981;49.104;11.396;2023-04-04T02:42:46;96227.38;;;-2.46;100.00
48563;BME280;34981;49.104;11.396;2023-04-04T02:45:14;96224.09;;;-2.48;100.00
48563;BME280;34981;49.104;11.396;2023-04-04T02:47:49;96233.72;;;-2.40;100.00
48563;BME280;34981;49.104;11.396;2023-04-04T02:50:17;96213.94;;;-2.80;100.00
48563;BME280;34981;49.104;11.396;2023-04-04T02:52:51;96232.00;;;-2.62;100.00
48563;BME280;34981;49.104;11.396;2023-04-04T02:55:20;96242.19;;;-2.45;100.00
48563;BME280;34981;49.104;11.396;2023-04-04T02:57:51;96233.94;;;-2.56;100.00
48563;BME280;34981;49.104;11.396;2023-04-04T03:00:18;96228.81;;;-2.87;100.00
48563;BME280;34981;49.104;11.396;2023-04-04T03:02:51;96242.72;;;-2.64;100.00
48563;BME280;34981;49.104;11.396;2023-04-04T03:05:20;96234.00;;;-2.79;100.00
48563;BME280;34981;49.104;11.396;2023-04-04T03:07:47;96220.16;;;-3.10;100.00
48563;BME280;34981;49.104;11.396;2023-04-04T03:10:14;96228.69;;;-3.08;100.00
48563;BME280;34981;49.104;11.396;2023-04-04T03:12:41;96242.13;;;-3.03;100.00
48563;BME280;34981;49.104;11.396;2023-04-04T03:15:08;96258.09;;;-2.90;100.00
48563;BME280;34981;49.104;11.396;2023-04-04T03:17:36;96260.56;;;-2.89;100.00
48563;BME280;34981;49.104;11.396;2023-04-04T03:20:05;96254.53;;;-2.97;100.00
48563;BME280;34981;49.104;11.396;2023-04-04T03:22:32;96249.34;;;-3.05;100.00
48563;BME280;34981;49.104;11.396;2023-04-04T03:25:01;96257.00;;;-2.96;100.00
48563;BME280;34981;49.104;11.396;2023-04-04T03:27:32;96278.25;;;-2.83;100.00
48563;BME280;34981;49.104;11.396;2023-04-04T03:29:59;96279.00;;;-2.74;100.00
48563;BME280;34981;49.104;11.396;2023-04-04T03:32:30;96272.81;;;-2.81;100.00
48563;BME280;34981;49.104;11.396;2023-04-04T03:34:58;96283.59;;;-2.76;100.00
48563;BME280;34981;49.104;11.396;2023-04-04T03:37:25;96267.28;;;-2.86;100.00
48563;BME280;34981;49.104;11.396;2023-04-04T03:39:52;96274.72;;;-2.75;100.00
48563;BME280;34981;49.104;11.396;2023-04-04T03:42:19;96288.16;;;-2.70;100.00
48563;BME280;34981;49.104;11.396;2023-04-04T03:44:47;96293.53;;;-2.63;100.00
48563;BME280;34981;49.104;11.396;2023-04-04T03:47:24;96274.59;;;-2.96;100.00
48563;BME280;34981;49.104;11.396;2023-04-04T03:49:51;96289.25;;;-2.79;100.00
48563;BME280;34981;49.104;11.396;2023-04-04T03:52:18;96278.22;;;-2.97;100.00
48563;BME280;34981;49.104;11.396;2023-04-04T03:54:45;96275.97;;;-3.00;100.00
48563;BME280;34981;49.104;11.396;2023-04-04T03:57:13;96276.63;;;-3.06;100.00
48563;BME280;34981;49.104;11.396;2023-04-04T03:59:41;96295.97;;;-2.99;100.00
48563;BME280;34981;49.104;11.396;2023-04-04T04:02:09;96291.75;;;-3.00;100.00
48563;BME280;34981;49.104;11.396;2023-04-04T04:04:36;96296.28;;;-2.94;100.00
48563;BME280;34981;49.104;11.396;2023-04-04T04:07:03;96299.56;;;-2.92;100.00
48563;BME280;34981;49.104;11.396;2023-04-04T04:09:30;96300.25;;;-2.98;100.00
48563;BME280;34981;49.104;11.396;2023-04-04T04:11:57;96315.91;;;-2.82;100.00
48563;BME280;34981;49.104;11.396;2023-04-04T04:14:24;96346.84;;;-2.69;100.00
48563;BME280;34981;49.104;11.396;2023-04-04T04:16:52;96349.22;;;-2.75;100.00
48563;BME280;34981;49.104;11.396;2023-04-04T04:19:21;96348.41;;;-2.75;100.00
48563;BME280;34981;49.104;11.396;2023-04-04T04:21:48;96352.59;;;-2.66;100.00
48563;BME280;34981;49.104;11.396;2023-04-04T04:24:16;96374.25;;;-2.56;100.00
48563;BME280;34981;49.104;11.396;2023-04-04T04:26:43;96357.59;;;-2.71;100.00
48563;BME280;34981;49.104;11.396;2023-04-04T04:29:14;96365.59;;;-2.64;100.00
48563;BME280;34981;49.104;11.396;2023-04-04T04:31:42;96397.16;;;-2.42;100.00
48563;BME280;34981;49.104;11.396;2023-04-04T04:34:09;96381.69;;;-2.45;100.00
48563;BME280;34981;49.104;11.396;2023-04-04T04:36:39;96394.78;;;-2.37;100.00
48563;BME280;34981;49.104;11.396;2023-04-04T04:39:22;96396.78;;;-2.39;100.00
48563;BME280;34981;49.104;11.396;2023-04-04T04:42:09;96391.22;;;-2.44;100.00
48563;BME280;34981;49.104;11.396;2023-04-04T04:44:44;96386.63;;;-2.42;100.00
48563;BME280;34981;49.104;11.396;2023-04-04T04:47:12;96393.97;;;-2.37;100.00
48563;BME280;34981;49.104;11.396;2023-04-04T04:49:39;96399.34;;;-2.30;100.00
48563;BME280;34981;49.104;11.396;2023-04-04T04:52:09;96371.22;;;-2.53;100.00
48563;BME280;34981;49.104;11.396;2023-04-04T04:54:40;96391.22;;;-2.44;100.00
48563;BME280;34981;49.104;11.396;2023-04-04T04:57:09;96393.69;;;-2.42;100.00
48563;BME280;34981;49.104;11.396;2023-04-04T04:59:40;96365.09;;;-2.68;100.00
48563;BME280;34981;49.104;11.396;2023-04-04T05:02:09;96366.47;;;-2.72;100.00
48563;BME280;34981;49.104;11.396;2023-04-04T05:04:41;96383.13;;;-2.57;100.00
48563;BME280;34981;49.104;11.396;2023-04-04T05:07:13;96386.94;;;-2.45;100.00
48563;BME280;34981;49.104;11.396;2023-04-04T05:09:42;96389.53;;;-2.37;100.00
48563;BME280;34981;49.104;11.396;2023-04-04T05:12:11;96421.97;;;-2.21;100.00
48563;BME280;34981;49.104;11.396;2023-04-04T05:14:42;96410.25;;;-2.19;100.00
48563;BME280;34981;49.104;11.396;2023-04-04T05:17:09;96434.25;;;-1.99;100.00
48563;BME280;34981;49.104;11.396;2023-04-04T05:19:36;96452.72;;;-1.84;100.00
48563;BME280;34981;49.104;11.396;2023-04-04T05:22:05;96470.63;;;-1.65;100.00
48563;BME280;34981;49.104;11.396;2023-04-04T05:24:40;96475.28;;;-1.52;100.00
48563;BME280;34981;49.104;11.396;2023-04-04T05:27:12;96482.09;;;-1.43;100.00
48563;BME280;34981;49.104;11.396;2023-04-04T05:29:44;96485.38;;;-1.27;100.00
48563;BME280;34981;49.104;11.396;2023-04-04T05:32:14;96472.28;;;-1.20;100.00
48563;BME280;34981;49.104;11.396;2023-04-04T05:34:48;96480.53;;;-1.08;100.00
48563;BME280;34981;49.104;11.396;2023-04-04T05:37:17;96472.06;;;-1.04;100.00
48563;BME280;34981;49.104;11.396;2023-04-04T05:39:47;96490.16;;;-0.65;100.00
48563;BME280;34981;49.104;11.396;2023-04-04T05:42:15;96467.28;;;-0.58;100.00
48563;BME280;34981;49.104;11.396;2023-04-04T05:44:47;96436.88;;;-0.75;100.00
48563;BME280;34981;49.104;11.396;2023-04-04T05:47:15;96436.44;;;-0.57;100.00
48563;BME280;34981;49.104;11.396;2023-04-04T05:49:45;96471.66;;;0.20;100.00
48563;BME280;34981;49.104;11.396;2023-04-04T05:52:12;96454.44;;;0.31;100.00
48563;BME280;34981;49.104;11.396;2023-04-04T05:54:39;96396.16;;;-0.17;100.00
48563;BME280;34981;49.104;11.396;2023-04-04T05:57:12;96414.09;;;0.50;100.00
48563;BME280;34981;49.104;11.396;2023-04-04T05:59:47;96402.16;;;0.67;100.00
48563;BME280;34981;49.104;11.396;2023-04-04T06:02:15;96373.69;;;0.76;100.00
48563;BME280;34981;49.104;11.396;2023-04-04T06:04:48;96327.34;;;0.39;100.00
48563;BME280;34981;49.104;11.396;2023-04-04T06:07:24;96333.03;;;0.90;100.00
48563;BME280;34981;49.104;11.396;2023-04-04T06:09:51;96273.97;;;0.70;100.00
48563;BME280;34981;49.104;11.396;2023-04-04T06:12:19;96251.34;;;0.61;100.00
48563;BME280;34981;49.104;11.396;2023-04-04T06:14:46;96224.06;;;0.54;100.00
48563;BME280;34981;49.104;11.396;2023-04-04T06:17:18;96241.19;;;1.56;100.00
48563;BME280;34981;49.104;11.396;2023-04-04T06:19:45;96204.13;;;1.43;100.00
48563;BME280;34981;49.104;11.396;2023-04-04T06:22:12;96133.28;;;1.12;100.00
48563;BME280;34981;49.104;11.396;2023-04-04T06:24:45;96132.41;;;1.51;100.00
48563;BME280;34981;49.104;11.396;2023-04-04T06:27:12;96091.66;;;1.97;100.00
48563;BME280;34981;49.104;11.396;2023-04-04T06:29:39;96049.19;;;1.66;100.00
48563;BME280;34981;49.104;11.396;2023-04-04T06:32:08;96031.66;;;1.65;100.00
48563;BME280;34981;49.104;11.396;2023-04-04T06:34:38;96044.72;;;2.54;100.00
48563;BME280;34981;49.104;11.396;2023-04-04T06:37:06;95980.69;;;2.25;100.00
48563;BME280;34981;49.104;11.396;2023-04-04T06:39:40;95964.66;;;2.39;100.00
48563;BME280;34981;49.104;11.396;2023-04-04T06:42:14;95970.03;;;3.11;100.00
48563;BME280;34981;49.104;11.396;2023-04-04T06:44:46;95916.34;;;2.55;100.00
48563;BME280;34981;49.104;11.396;2023-04-04T06:47:14;95926.41;;;3.01;100.00
48563;BME280;34981;49.104;11.396;2023-04-04T06:49:41;95934.72;;;3.82;100.00
48563;BME280;34981;49.104;11.396;2023-04-04T06:52:08;95876.13;;;3.36;100.00
48563;BME280;34981;49.104;11.396;2023-04-04T06:54:35;95842.53;;;2.82;100.00
48563;BME280;34981;49.104;11.396;2023-04-04T06:57:02;95858.38;;;3.60;100.00
48563;BME280;34981;49.104;11.396;2023-04-04T06:59:29;95836.69;;;3.74;100.00
48563;BME280;34981;49.104;11.396;2023-04-04T07:01:56;95825.94;;;3.81;100.00
48563;BME280;34981;49.104;11.396;2023-04-04T07:04:23;95834.50;;;4.18;100.00
48563;BME280;34981;49.104;11.396;2023-04-04T07:06:51;95827.09;;;3.97;100.00
48563;BME280;34981;49.104;11.396;2023-04-04T07:09:18;95807.28;;;3.46;100.00
48563;BME280;34981;49.104;11.396;2023-04-04T07:11:55;95825.91;;;4.39;100.00
48563;BME280;34981;49.104;11.396;2023-04-04T07:14:22;95827.00;;;3.91;100.00
48563;BME280;34981;49.104;11.396;2023-04-04T07:16:51;95843.63;;;3.99;100.00
48563;BME280;34981;49.104;11.396;2023-04-04T07:19:19;95861.16;;;2.93;100.00
48563;BME280;34981;49.104;11.396;2023-04-04T07:21:46;95862.72;;;2.83;100.00
48563;BME280;34981;49.104;11.396;2023-04-04T07:24:13;95878.91;;;4.06;100.00
48563;BME280;34981;49.104;11.396;2023-04-04T07:26:40;95876.69;;;3.79;100.00
48563;BME280;34981;49.104;11.396;2023-04-04T07:29:07;95897.16;;;3.79;100.00
48563;BME280;34981;49.104;11.396;2023-04-04T07:31:35;95890.28;;;3.00;100.00
48563;BME280;34981;49.104;11.396;2023-04-04T07:34:02;95909.06;;;3.46;100.00
48563;BME280;34981;49.104;11.396;2023-04-04T07:36:29;95914.34;;;3.35;100.00
48563;BME280;34981;49.104;11.396;2023-04-04T07:38:57;95912.25;;;2.70;100.00
48563;BME280;34981;49.104;11.396;2023-04-04T07:41:24;95923.44;;;2.36;100.00
48563;BME280;34981;49.104;11.396;2023-04-04T07:43:54;95936.22;;;3.00;100.00
48563;BME280;34981;49.104;11.396;2023-04-04T07:46:21;95934.63;;;3.89;100.00
48563;BME280;34981;49.104;11.396;2023-04-04T07:48:48;95934.91;;;2.73;100.00
48563;BME280;34981;49.104;11.396;2023-04-04T07:51:16;95936.97;;;3.56;100.00
48563;BME280;34981;49.104;11.396;2023-04-04T07:53:43;95949.94;;;3.64;100.00
48563;BME280;34981;49.104;11.396;2023-04-04T07:56:10;95965.38;;;2.89;100.00
48563;BME280;34981;49.104;11.396;2023-04-04T07:58:38;95960.91;;;2.21;100.00
48563;BME280;34981;49.104;11.396;2023-04-04T08:01:05;95978.50;;;2.84;100.00
48563;BME280;34981;49.104;11.396;2023-04-04T08:03:32;95981.63;;;2.06;100.00
48563;BME280;34981;49.104;11.396;2023-04-04T08:05:59;95988.00;;;1.74;100.00
48563;BME280;34981;49.104;11.396;2023-04-04T08:08:26;96002.94;;;1.93;100.00
48563;BME280;34981;49.104;11.396;2023-04-04T08:10:54;96012.66;;;1.74;100.00
48563;BME280;34981;49.104;11.396;2023-04-04T08:13:21;96029.69;;;1.47;100.00
48563;BME280;34981;49.104;11.396;2023-04-04T08:15:48;96038.34;;;1.29;100.00
48563;BME280;34981;49.104;11.396;2023-04-04T08:18:15;96038.34;;;1.29;100.00
48563;BME280;34981;49.104;11.396;2023-04-04T08:20:42;96051.34;;;1.37;100.00
48563;BME280;34981;49.104;11.396;2023-04-04T08:23:09;96055.88;;;1.30;100.00
48563;BME280;34981;49.104;11.396;2023-04-04T08:25:38;96063.13;;;1.48;100.00
48563;BME280;34981;49.104;11.396;2023-04-04T08:28:06;96058.28;;;1.32;100.00
48563;BME280;34981;49.104;11.396;2023-04-04T08:30:33;96060.66;;;1.46;100.00
48563;BME280;34981;49.104;11.396;2023-04-04T08:33:00;96069.28;;;1.35;100.00
48563;BME280;34981;49.104;11.396;2023-04-04T08:35:29;96063.69;;;0.99;100.00
48563;BME280;34981;49.104;11.396;2023-04-04T08:37:56;96066.28;;;1.18;100.00
48563;BME280;34981;49.104;11.396;2023-04-04T08:40:24;96065.69;;;1.10;100.00
48563;BME280;34981;49.104;11.396;2023-04-04T08:42:51;96071.53;;;1.38;100.00
48563;BME280;34981;49.104;11.396;2023-04-04T08:45:18;96067.66;;;1.79;100.00
48563;BME280;34981;49.104;11.396;2023-04-04T08:47:47;96080.34;;;2.08;100.00
48563;BME280;34981;49.104;11.396;2023-04-04T08:50:16;96070.66;;;1.95;100.00
48563;BME280;34981;49.104;11.396;2023-04-04T08:52:45;96081.84;;;1.60;100.00
48563;BME280;34981;49.104;11.396;2023-04-04T08:55:12;96083.09;;;1.50;100.00
48563;BME280;34981;49.104;11.396;2023-04-04T08:57:40;96086.84;;;1.23;100.00
48563;BME280;34981;49.104;11.396;2023-04-04T09:00:08;96090.88;;;1.39;100.00
48563;BME280;34981;49.104;11.396;2023-04-04T09:02:41;96086.84;;;1.23;100.00
48563;BME280;34981;49.104;11.396;2023-04-04T09:05:12;96101.91;;;1.29;100.00
48563;BME280;34981;49.104;11.396;2023-04-04T09:07:41;96084.94;;;1.43;100.00
48563;BME280;34981;49.104;11.396;2023-04-04T09:10:09;96093.72;;;1.44;100.00
48563;BME280;34981;49.104;11.396;2023-04-04T09:12:41;96095.25;;;1.65;100.00
48563;BME280;34981;49.104;11.396;2023-04-04T09:15:08;96116.59;;;1.05;100.00
48563;BME280;34981;49.104;11.396;2023-04-04T09:17:36;96107.56;;;1.39;100.00
48563;BME280;34981;49.104;11.396;2023-04-04T09:20:08;96112.91;;;1.20;100.00
48563;BME280;34981;49.104;11.396;2023-04-04T09:22:50;96114.31;;;1.35;100.00
48563;BME280;34981;49.104;11.396;2023-04-04T09:25:17;96119.81;;;1.27;100.00
48563;BME280;34981;49.104;11.396;2023-04-04T09:27:44;96119.00;;;1.33;100.00
48563;BME280;34981;49.104;11.396;2023-04-04T09:30:11;96126.34;;;1.25;100.00
48563;BME280;34981;49.104;11.396;2023-04-04T09:32:38;96119.00;;;1.27;100.00
48563;BME280;34981;49.104;11.396;2023-04-04T09:35:07;96115.34;;;1.28;100.00
48563;BME280;34981;49.104;11.396;2023-04-04T09:37:35;96110.75;;;1.61;100.00
48563;BME280;34981;49.104;11.396;2023-04-04T09:40:02;96109.66;;;1.82;100.00
48563;BME280;34981;49.104;11.396;2023-04-04T09:42:30;96104.16;;;1.77;100.00
48563;BME280;34981;49.104;11.396;2023-04-04T09:44:58;96114.78;;;1.70;100.00
48563;BME280;34981;49.104;11.396;2023-04-04T09:47:27;96112.22;;;1.50;100.00
48563;BME280;34981;49.104;11.396;2023-04-04T09:50:00;96111.03;;;1.91;100.00
48563;BME280;34981;49.104;11.396;2023-04-04T09:52:32;96110.63;;;1.94;100.00
48563;BME280;34981;49.104;11.396;2023-04-04T09:55:02;96102.91;;;1.86;100.00
48563;BME280;34981;49.104;11.396;2023-04-04T09:57:35;96111.75;;;2.11;100.00
48563;BME280;34981;49.104;11.396;2023-04-04T10:00:04;96106.63;;;2.16;100.00
48563;BME280;34981;49.104;11.396;2023-04-04T10:02:35;96102.56;;;2.45;100.00
48563;BME280;34981;49.104;11.396;2023-04-04T10:05:03;96107.56;;;2.28;100.00
48563;BME280;34981;49.104;11.396;2023-04-04T10:07:32;96108.47;;;2.16;100.00
48563;BME280;34981;49.104;11.396;2023-04-04T10:10:04;96112.16;;;2.08;100.00
48563;BME280;34981;49.104;11.396;2023-04-04T10:12:31;96118.97;;;2.60;100.00
48563;BME280;34981;49.104;11.396;2023-04-04T10:14:59;96115.50;;;2.28;100.00
48563;BME280;34981;49.104;11.396;2023-04-04T10:17:44;96108.34;;;2.85;100.00
48563;BME280;34981;49.104;11.396;2023-04-04T10:20:13;96114.66;;;2.66;100.00
48563;BME280;34981;49.104;11.396;2023-04-04T10:22:44;96122.94;;;2.13;100.00
48563;BME280;34981;49.104;11.396;2023-04-04T10:25:12;96125.97;;;2.23;100.00
48563;BME280;34981;49.104;11.396;2023-04-04T10:27:40;96132.47;;;2.59;100.00
48563;BME280;34981;49.104;11.396;2023-04-04T10:30:07;96131.66;;;2.20;100.00
48563;BME280;34981;49.104;11.396;2023-04-04T10:35:21;96140.25;;;2.22;100.00
48563;BME280;34981;49.104;11.396;2023-04-04T10:37:52;96143.91;;;2.21;100.00
48563;BME280;34981;49.104;11.396;2023-04-04T10:40:25;96154.72;;;1.82;100.00
48563;BME280;34981;49.104;11.396;2023-04-04T10:42:54;96160.63;;;2.22;100.00
48563;BME280;34981;49.104;11.396;2023-04-04T10:45:21;96158.03;;;2.15;100.00
48563;BME280;34981;49.104;11.396;2023-04-04T10:47:48;96170.91;;;2.12;100.00
48563;BME280;34981;49.104;11.396;2023-04-04T10:50:16;96159.38;;;2.31;100.00
48563;BME280;34981;49.104;11.396;2023-04-04T10:52:45;96170.31;;;2.48;100.00
48563;BME280;34981;49.104;11.396;2023-04-04T10:55:13;96171.91;;;2.49;100.00
48563;BME280;34981;49.104;11.396;2023-04-04T10:57:42;96162.09;;;2.49;100.00
48563;BME280;34981;49.104;11.396;2023-04-04T11:00:10;96158.47;;;2.44;100.00
48563;BME280;34981;49.104;11.396;2023-04-04T11:05:34;96162.41;;;2.34;100.00
48563;BME280;34981;49.104;11.396;2023-04-04T11:08:09;96164.00;;;2.04;100.00
48563;BME280;34981;49.104;11.396;2023-04-04T11:10:37;96155.41;;;2.47;100.00
48563;BME280;34981;49.104;11.396;2023-04-04T11:13:09;96155.41;;;2.47;100.00
48563;BME280;34981;49.104;11.396;2023-04-04T11:15:44;96156.19;;;2.54;100.00
48563;BME280;34981;49.104;11.396;2023-04-04T11:18:11;96158.31;;;2.70;100.00
48563;BME280;34981;49.104;11.396;2023-04-04T11:21:01;96164.94;;;3.10;100.00
48563;BME280;34981;49.104;11.396;2023-04-04T11:23:37;96148.22;;;2.54;100.00
48563;BME280;34981;49.104;11.396;2023-04-04T11:26:05;96143.88;;;2.59;100.00
48563;BME280;34981;49.104;11.396;2023-04-04T11:33:52;96153.38;;;2.11;100.00
48563;BME280;34981;49.104;11.396;2023-04-04T11:39:07;96159.09;;;2.70;100.00
48563;BME280;34981;49.104;11.396;2023-04-04T11:41:46;96159.91;;;2.71;100.00
48563;BME280;34981;49.104;11.396;2023-04-04T11:44:14;96157.56;;;2.63;100.00
48563;BME280;34981;49.104;11.396;2023-04-04T11:46:42;96153.00;;;2.70;100.00
48563;BME280;34981;49.104;11.396;2023-04-04T11:49:12;96152.03;;;2.89;100.00
48563;BME280;34981;49.104;11.396;2023-04-04T11:51:40;96148.72;;;2.94;100.00
48563;BME280;34981;49.104;11.396;2023-04-04T11:54:14;96152.00;;;3.39;100.00
48563;BME280;34981;49.104;11.396;2023-04-04T11:56:42;96147.91;;;3.18;100.00
48563;BME280;34981;49.104;11.396;2023-04-04T11:59:11;96144.41;;;2.99;100.00
48563;BME280;34981;49.104;11.396;2023-04-04T12:01:38;96129.72;;;3.58;100.00
48563;BME280;34981;49.104;11.396;2023-04-04T12:04:06;96129.09;;;3.20;100.00
48563;BME280;34981;49.104;11.396;2023-04-04T12:06:33;96134.56;;;3.25;100.00
48563;BME280;34981;49.104;11.396;2023-04-04T12:09:03;96133.53;;;3.44;100.00
48563;BME280;34981;49.104;11.396;2023-04-04T12:11:34;96136.66;;;3.59;100.00
48563;BME280;34981;49.104;11.396;2023-04-04T12:14:02;96127.94;;;3.88;100.00
48563;BME280;34981;49.104;11.396;2023-04-04T12:16:29;96135.00;;;3.95;100.00
48563;BME280;34981;49.104;11.396;2023-04-04T12:18:59;96139.03;;;3.67;100.00
48563;BME280;34981;49.104;11.396;2023-04-04T12:21:29;96144.03;;;3.39;100.00
48563;BME280;34981;49.104;11.396;2023-04-04T12:23:57;96144.78;;;3.64;100.00
48563;BME280;34981;49.104;11.396;2023-04-04T12:26:24;96147.91;;;3.79;100.00
48563;BME280;34981;49.104;11.396;2023-04-04T12:28:55;96156.72;;;4.10;100.00
48563;BME280;34981;49.104;11.396;2023-04-04T12:31:24;96157.78;;;4.09;100.00
48563;BME280;34981;49.104;11.396;2023-04-04T12:33:52;96165.03;;;3.83;100.00
48563;BME280;34981;49.104;11.396;2023-04-04T12:36:19;96161.59;;;3.58;100.00
48563;BME280;34981;49.104;11.396;2023-04-04T12:38:59;96173.03;;;3.59;100.00
48563;BME280;34981;49.104;11.396;2023-04-04T12:41:27;96153.13;;;3.86;100.00
48563;BME280;34981;49.104;11.396;2023-04-04T12:44:01;96159.13;;;4.29;100.00
48563;BME280;34981;49.104;11.396;2023-04-04T12:46:38;96157.91;;;3.96;100.00
48563;BME280;34981;49.104;11.396;2023-04-04T12:49:06;96162.94;;;4.04;100.00
48563;BME280;34981;49.104;11.396;2023-04-04T12:51:34;96165.19;;;4.18;100.00
48563;BME280;34981;49.104;11.396;2023-04-04T12:54:03;96158.72;;;3.96;100.00
48563;BME280;34981;49.104;11.396;2023-04-04T12:56:30;96155.34;;;3.71;100.00
48563;BME280;34981;49.104;11.396;2023-04-04T12:59:01;96154.22;;;3.60;100.00
48563;BME280;34981;49.104;11.396;2023-04-04T13:01:31;96156.25;;;3.65;100.00
48563;BME280;34981;49.104;11.396;2023-04-04T13:04:00;96152.00;;;3.75;100.00
48563;BME280;34981;49.104;11.396;2023-04-04T13:06:29;96155.41;;;3.82;100.00
48563;BME280;34981;49.104;11.396;2023-04-04T13:08:57;96171.75;;;4.34;100.00